39.8°F
Current conditions from King Hill
Updated every 5 minutes
 
  Wednesday April 23, 2014

Station Historical Data
Daily Summary for January 7, 2012 Units:  Both    English   Metric
« Previous Day
Next Day »
Daily Weekly Monthly Yearly Custom
  High: Low: Average:
Temperature: 40.2 °F /  4.6 °C 31.3 °F /  -0.4 °C 35.6 °F /  2 °C
Dew Point: 33.1 °F /  0.6 °C 25.8 °F /  -3.4 °C 29.7 °F /  -1.3 °C
Humidity: 93% 68% 79%
Wind Speed: 8.0mph /  12.9km/h - 3.5mph /  5.6km/h
Wind Gust: 17.0mph /  27.4km/h - -
Wind- - SW
Pressure: 29.85 in /  1010.7 hPa 29.61 in /  1002.6 hPa -
Precipitation: 0.00 in /  0 mm    
Historical Graphs
 
 
Tabular Data for January 7, 2012
Time Temperature Dew Point Pressure Wind Wind Speed Wind Gust Humidity Daily Rainfall
00:04 33.2 °F /  0.7 °C 25.8 °F /  -3.4 °C 29.66in /  1004.3hPa SSW 3.0mph /  4.8km/h 6.0mph /  9.7km/h 74% 0.00in /  0mm
00:09 33.9 °F /  1.1 °C 26.2 °F /  -3.2 °C 29.66in /  1004.3hPa SSW 4.0mph /  6.4km/h 7.0mph /  11.3km/h 73% 0.00in /  0mm
00:14 34.5 °F /  1.4 °C 26.4 °F /  -3.1 °C 29.66in /  1004.3hPa SW 4.0mph /  6.4km/h 9.0mph /  14.5km/h 72% 0.00in /  0mm
00:19 35.2 °F /  1.8 °C 26.7 °F /  -2.9 °C 29.66in /  1004.3hPa SSW 4.0mph /  6.4km/h 9.0mph /  14.5km/h 71% 0.00in /  0mm
00:24 35.5 °F /  1.9 °C 26.7 °F /  -2.9 °C 29.66in /  1004.3hPa SSW 4.0mph /  6.4km/h 7.0mph /  11.3km/h 70% 0.00in /  0mm
00:29 35.8 °F /  2.1 °C 27.0 °F /  -2.8 °C 29.66in /  1004.3hPa SSW 4.0mph /  6.4km/h 7.0mph /  11.3km/h 70% 0.00in /  0mm
00:34 35.9 °F /  2.2 °C 26.7 °F /  -2.9 °C 29.66in /  1004.3hPa SW 5.0mph /  8km/h 7.0mph /  11.3km/h 69% 0.00in /  0mm
00:39 36.0 °F /  2.2 °C 26.8 °F /  -2.9 °C 29.66in /  1004.3hPa SSW 5.0mph /  8km/h 7.0mph /  11.3km/h 69% 0.00in /  0mm
00:44 36.0 °F /  2.2 °C 26.8 °F /  -2.9 °C 29.66in /  1004.3hPa SSW 4.0mph /  6.4km/h 9.0mph /  14.5km/h 69% 0.00in /  0mm
00:49 35.9 °F /  2.2 °C 26.7 °F /  -2.9 °C 29.66in /  1004.3hPa SSW 4.0mph /  6.4km/h 9.0mph /  14.5km/h 69% 0.00in /  0mm
00:54 35.9 °F /  2.2 °C 26.7 °F /  -2.9 °C 29.66in /  1004.3hPa SSW 4.0mph /  6.4km/h 8.0mph /  12.9km/h 69% 0.00in /  0mm
00:59 36.1 °F /  2.3 °C 26.9 °F /  -2.8 °C 29.66in /  1004.3hPa SSW 5.0mph /  8km/h 11.0mph /  17.7km/h 69% 0.00in /  0mm
01:04 36.2 °F /  2.3 °C 26.7 °F /  -2.9 °C 29.66in /  1004.3hPa SSW 5.0mph /  8km/h 11.0mph /  17.7km/h 68% 0.00in /  0mm
01:09 35.9 °F /  2.2 °C 26.4 °F /  -3.1 °C 29.66in /  1004.3hPa SSW 4.0mph /  6.4km/h 8.0mph /  12.9km/h 68% 0.00in /  0mm
01:14 35.4 °F /  1.9 °C 26.2 °F /  -3.2 °C 29.67in /  1004.6hPa SSW 4.0mph /  6.4km/h 7.0mph /  11.3km/h 69% 0.00in /  0mm
01:19 35.3 °F /  1.8 °C 26.2 °F /  -3.2 °C 29.66in /  1004.3hPa SSW 4.0mph /  6.4km/h 7.0mph /  11.3km/h 69% 0.00in /  0mm
01:24 35.1 °F /  1.7 °C 26.3 °F /  -3.2 °C 29.67in /  1004.6hPa SSW 5.0mph /  8km/h 7.0mph /  11.3km/h 70% 0.00in /  0mm
01:29 34.9 °F /  1.6 °C 26.1 °F /  -3.3 °C 29.67in /  1004.6hPa SSW 4.0mph /  6.4km/h 7.0mph /  11.3km/h 70% 0.00in /  0mm
01:34 34.7 °F /  1.5 °C 26.3 °F /  -3.2 °C 29.66in /  1004.3hPa SSW 4.0mph /  6.4km/h 7.0mph /  11.3km/h 71% 0.00in /  0mm
01:39 34.8 °F /  1.6 °C 26.4 °F /  -3.1 °C 29.66in /  1004.3hPa SSW 4.0mph /  6.4km/h 7.0mph /  11.3km/h 71% 0.00in /  0mm
01:44 34.9 °F /  1.6 °C 26.5 °F /  -3.1 °C 29.66in /  1004.3hPa SSW 4.0mph /  6.4km/h 7.0mph /  11.3km/h 71% 0.00in /  0mm
01:49 34.7 °F /  1.5 °C 26.3 °F /  -3.2 °C 29.67in /  1004.6hPa SSW 4.0mph /  6.4km/h 7.0mph /  11.3km/h 71% 0.00in /  0mm
01:54 34.6 °F /  1.4 °C 26.2 °F /  -3.2 °C 29.67in /  1004.6hPa SSW 4.0mph /  6.4km/h 6.0mph /  9.7km/h 71% 0.00in /  0mm
01:59 35.0 °F /  1.7 °C 26.6 °F /  -3 °C 29.67in /  1004.6hPa SSW 5.0mph /  8km/h 7.0mph /  11.3km/h 71% 0.00in /  0mm
02:04 35.1 °F /  1.7 °C 26.6 °F /  -3 °C 29.67in /  1004.6hPa SSW 4.0mph /  6.4km/h 7.0mph /  11.3km/h 71% 0.00in /  0mm
02:09 35.0 °F /  1.7 °C 26.6 °F /  -3 °C 29.67in /  1004.6hPa SSW 4.0mph /  6.4km/h 8.0mph /  12.9km/h 71% 0.00in /  0mm
02:14 34.7 °F /  1.5 °C 26.3 °F /  -3.2 °C 29.67in /  1004.6hPa SSW 4.0mph /  6.4km/h 8.0mph /  12.9km/h 71% 0.00in /  0mm
02:19 34.4 °F /  1.3 °C 26.0 °F /  -3.3 °C 29.67in /  1004.6hPa SSW 3.0mph /  4.8km/h 7.0mph /  11.3km/h 71% 0.00in /  0mm
02:24 34.4 °F /  1.3 °C 26.3 °F /  -3.2 °C 29.67in /  1004.6hPa SSW 4.0mph /  6.4km/h 7.0mph /  11.3km/h 72% 0.00in /  0mm
02:29 34.3 °F /  1.3 °C 26.2 °F /  -3.2 °C 29.67in /  1004.6hPa SSW 4.0mph /  6.4km/h 7.0mph /  11.3km/h 72% 0.00in /  0mm
02:34 34.1 °F /  1.2 °C 26.4 °F /  -3.1 °C 29.67in /  1004.6hPa SSW 4.0mph /  6.4km/h 6.0mph /  9.7km/h 73% 0.00in /  0mm
02:39 34.4 °F /  1.3 °C 26.6 °F /  -3 °C 29.67in /  1004.6hPa SSW 4.0mph /  6.4km/h 6.0mph /  9.7km/h 73% 0.00in /  0mm
02:44 34.6 °F /  1.4 °C 26.8 °F /  -2.9 °C 29.67in /  1004.6hPa SSW 4.0mph /  6.4km/h 6.0mph /  9.7km/h 73% 0.00in /  0mm
02:49 34.8 °F /  1.6 °C 27.0 °F /  -2.8 °C 29.66in /  1004.3hPa SSW 4.0mph /  6.4km/h 6.0mph /  9.7km/h 73% 0.00in /  0mm
02:54 35.4 °F /  1.9 °C 27.3 °F /  -2.6 °C 29.66in /  1004.3hPa SSW 4.0mph /  6.4km/h 8.0mph /  12.9km/h 72% 0.00in /  0mm
02:59 35.7 °F /  2.1 °C 27.6 °F /  -2.4 °C 29.66in /  1004.3hPa SSW 4.0mph /  6.4km/h 8.0mph /  12.9km/h 72% 0.00in /  0mm
03:04 35.7 °F /  2.1 °C 27.2 °F /  -2.7 °C 29.66in /  1004.3hPa SSW 4.0mph /  6.4km/h 7.0mph /  11.3km/h 71% 0.00in /  0mm
03:09 35.9 °F /  2.2 °C 27.4 °F /  -2.6 °C 29.66in /  1004.3hPa SW 4.0mph /  6.4km/h 7.0mph /  11.3km/h 71% 0.00in /  0mm
03:14 35.9 °F /  2.2 °C 27.8 °F /  -2.3 °C 29.66in /  1004.3hPa SSW 4.0mph /  6.4km/h 7.0mph /  11.3km/h 72% 0.00in /  0mm
03:19 35.7 °F /  2.1 °C 27.6 °F /  -2.4 °C 29.66in /  1004.3hPa SW 4.0mph /  6.4km/h 7.0mph /  11.3km/h 72% 0.00in /  0mm
03:24 35.8 °F /  2.1 °C 27.7 °F /  -2.4 °C 29.65in /  1003.9hPa SSW 4.0mph /  6.4km/h 8.0mph /  12.9km/h 72% 0.00in /  0mm
03:29 36.2 °F /  2.3 °C 28.0 °F /  -2.2 °C 29.65in /  1003.9hPa SSW 4.0mph /  6.4km/h 8.0mph /  12.9km/h 72% 0.00in /  0mm
03:34 36.4 °F /  2.4 °C 28.2 °F /  -2.1 °C 29.65in /  1003.9hPa SSW 4.0mph /  6.4km/h 7.0mph /  11.3km/h 72% 0.00in /  0mm
03:39 36.5 °F /  2.5 °C 28.3 °F /  -2.1 °C 29.65in /  1003.9hPa SSW 4.0mph /  6.4km/h 7.0mph /  11.3km/h 72% 0.00in /  0mm
03:49 36.7 °F /  2.6 °C 28.2 °F /  -2.1 °C 29.65in /  1003.9hPa SSW 4.0mph /  6.4km/h 7.0mph /  11.3km/h 71% 0.00in /  0mm
03:54 36.8 °F /  2.7 °C 28.3 °F /  -2.1 °C 29.64in /  1003.6hPa SSW 4.0mph /  6.4km/h 7.0mph /  11.3km/h 71% 0.00in /  0mm
03:59 37.0 °F /  2.8 °C 28.5 °F /  -1.9 °C 29.65in /  1003.9hPa SSW 4.0mph /  6.4km/h 6.0mph /  9.7km/h 71% 0.00in /  0mm
04:04 36.8 °F /  2.7 °C 28.3 °F /  -2.1 °C 29.65in /  1003.9hPa SSW 3.0mph /  4.8km/h 6.0mph /  9.7km/h 71% 0.00in /  0mm
04:09 36.9 °F /  2.7 °C 28.4 °F /  -2 °C 29.65in /  1003.9hPa SSW 3.0mph /  4.8km/h 6.0mph /  9.7km/h 71% 0.00in /  0mm
04:14 36.9 °F /  2.7 °C 28.4 °F /  -2 °C 29.65in /  1003.9hPa SSW 2.0mph /  3.2km/h 5.0mph /  8km/h 71% 0.00in /  0mm
04:19 36.9 °F /  2.7 °C 28.4 °F /  -2 °C 29.65in /  1003.9hPa SSW 2.0mph /  3.2km/h 5.0mph /  8km/h 71% 0.00in /  0mm
04:24 36.9 °F /  2.7 °C 28.7 °F /  -1.8 °C 29.65in /  1003.9hPa SSW 3.0mph /  4.8km/h 6.0mph /  9.7km/h 72% 0.00in /  0mm
04:29 36.9 °F /  2.7 °C 28.7 °F /  -1.8 °C 29.65in /  1003.9hPa SSW 2.0mph /  3.2km/h 6.0mph /  9.7km/h 72% 0.00in /  0mm
04:34 37.0 °F /  2.8 °C 28.8 °F /  -1.8 °C 29.64in /  1003.6hPa SSW 1.0mph /  1.6km/h 5.0mph /  8km/h 72% 0.00in /  0mm
04:39 37.1 °F /  2.8 °C 28.6 °F /  -1.9 °C 29.65in /  1003.9hPa SSW 2.0mph /  3.2km/h 4.0mph /  6.4km/h 71% 0.00in /  0mm
04:44 37.2 °F /  2.9 °C 28.7 °F /  -1.8 °C 29.64in /  1003.6hPa SSW 2.0mph /  3.2km/h 4.0mph /  6.4km/h 71% 0.00in /  0mm
04:49 37.3 °F /  2.9 °C 28.8 °F /  -1.8 °C 29.64in /  1003.6hPa SSW 2.0mph /  3.2km/h 4.0mph /  6.4km/h 71% 0.00in /  0mm
04:54 37.3 °F /  2.9 °C 28.8 °F /  -1.8 °C 29.64in /  1003.6hPa SSW 2.0mph /  3.2km/h 5.0mph /  8km/h 71% 0.00in /  0mm
04:59 37.2 °F /  2.9 °C 28.7 °F /  -1.8 °C 29.64in /  1003.6hPa SSW 2.0mph /  3.2km/h 5.0mph /  8km/h 71% 0.00in /  0mm
05:04 37.0 °F /  2.8 °C 28.8 °F /  -1.8 °C 29.64in /  1003.6hPa SSW 2.0mph /  3.2km/h 4.0mph /  6.4km/h 72% 0.00in /  0mm
05:09 36.8 °F /  2.7 °C 28.6 °F /  -1.9 °C 29.64in /  1003.6hPa Calm   4.0mph /  6.4km/h 72% 0.00in /  0mm
05:14 36.4 °F /  2.4 °C 28.6 °F /  -1.9 °C 29.65in /  1003.9hPa Calm   2.0mph /  3.2km/h 73% 0.00in /  0mm
05:19 35.8 °F /  2.1 °C 28.3 °F /  -2.1 °C 29.64in /  1003.6hPa Calm   1.0mph /  1.6km/h 74% 0.00in /  0mm
05:24 35.4 °F /  1.9 °C 28.9 °F /  -1.7 °C 29.64in /  1003.6hPa Calm   1.0mph /  1.6km/h 77% 0.00in /  0mm
05:29 35.0 °F /  1.7 °C 28.8 °F /  -1.8 °C 29.65in /  1003.9hPa Calm     78% 0.00in /  0mm
05:34 34.7 °F /  1.5 °C 28.5 °F /  -1.9 °C 29.65in /  1003.9hPa Calm     78% 0.00in /  0mm
05:39 34.4 °F /  1.3 °C 28.3 °F /  -2.1 °C 29.65in /  1003.9hPa Calm     78% 0.00in /  0mm
05:44 34.2 °F /  1.2 °C 28.4 °F /  -2 °C 29.65in /  1003.9hPa Calm     79% 0.00in /  0mm
05:49 34.0 °F /  1.1 °C 28.2 °F /  -2.1 °C 29.65in /  1003.9hPa Calm   1.0mph /  1.6km/h 79% 0.00in /  0mm
05:54 33.8 °F /  1 °C 28.0 °F /  -2.2 °C 29.65in /  1003.9hPa SSW 1.0mph /  1.6km/h 2.0mph /  3.2km/h 79% 0.00in /  0mm
05:59 33.6 °F /  0.9 °C 27.8 °F /  -2.3 °C 29.65in /  1003.9hPa SSW 1.0mph /  1.6km/h 2.0mph /  3.2km/h 79% 0.00in /  0mm
06:04 33.4 °F /  0.8 °C 27.6 °F /  -2.4 °C 29.65in /  1003.9hPa Calm   2.0mph /  3.2km/h 79% 0.00in /  0mm
06:09 33.2 °F /  0.7 °C 27.7 °F /  -2.4 °C 29.66in /  1004.3hPa SSW 2.0mph /  3.2km/h 3.0mph /  4.8km/h 80% 0.00in /  0mm
06:14 33.3 °F /  0.7 °C 27.8 °F /  -2.3 °C 29.66in /  1004.3hPa SSW 2.0mph /  3.2km/h 3.0mph /  4.8km/h 80% 0.00in /  0mm
06:19 33.4 °F /  0.8 °C 27.9 °F /  -2.3 °C 29.66in /  1004.3hPa SSW 2.0mph /  3.2km/h 3.0mph /  4.8km/h 80% 0.00in /  0mm
06:24 33.5 °F /  0.8 °C 27.7 °F /  -2.4 °C 29.65in /  1003.9hPa SSW 1.0mph /  1.6km/h 3.0mph /  4.8km/h 79% 0.00in /  0mm
06:29 33.7 °F /  0.9 °C 27.9 °F /  -2.3 °C 29.66in /  1004.3hPa SSW 2.0mph /  3.2km/h 4.0mph /  6.4km/h 79% 0.00in /  0mm
06:39 34.3 °F /  1.3 °C 28.2 °F /  -2.1 °C 29.66in /  1004.3hPa SSW 1.0mph /  1.6km/h 3.0mph /  4.8km/h 78% 0.00in /  0mm
06:44 34.4 °F /  1.3 °C 27.9 °F /  -2.3 °C 29.66in /  1004.3hPa SSW 1.0mph /  1.6km/h 3.0mph /  4.8km/h 77% 0.00in /  0mm
06:49 34.4 °F /  1.3 °C 27.9 °F /  -2.3 °C 29.66in /  1004.3hPa SSW 1.0mph /  1.6km/h 3.0mph /  4.8km/h 77% 0.00in /  0mm
06:54 34.4 °F /  1.3 °C 28.3 °F /  -2.1 °C 29.66in /  1004.3hPa Calm   3.0mph /  4.8km/h 78% 0.00in /  0mm
06:59 34.4 °F /  1.3 °C 28.3 °F /  -2.1 °C 29.65in /  1003.9hPa SSW 1.0mph /  1.6km/h 2.0mph /  3.2km/h 78% 0.00in /  0mm
07:04 34.1 °F /  1.2 °C 28.3 °F /  -2.1 °C 29.65in /  1003.9hPa Calm   2.0mph /  3.2km/h 79% 0.00in /  0mm
07:09 33.8 °F /  1 °C 29.5 °F /  -1.4 °C 29.65in /  1003.9hPa Calm   2.0mph /  3.2km/h 84% 0.00in /  0mm
07:14 33.2 °F /  0.7 °C 27.1 °F /  -2.7 °C 29.65in /  1003.9hPa Calm     78% 0.00in /  0mm
07:19 32.5 °F /  0.3 °C 26.4 °F /  -3.1 °C 29.65in /  1003.9hPa Calm     78% 0.00in /  0mm
07:24 31.9 °F /  -0.1 °C 26.4 °F /  -3.1 °C 29.66in /  1004.3hPa Calm     80% 0.00in /  0mm
07:29 31.7 °F /  -0.2 °C 26.2 °F /  -3.2 °C 29.66in /  1004.3hPa Calm     80% 0.00in /  0mm
07:34 31.7 °F /  -0.2 °C 26.5 °F /  -3.1 °C 29.66in /  1004.3hPa Calm     81% 0.00in /  0mm
07:39 31.5 °F /  -0.3 °C 26.3 °F /  -3.2 °C 29.67in /  1004.6hPa Calm     81% 0.00in /  0mm
07:44 31.4 °F /  -0.3 °C 26.2 °F /  -3.2 °C 29.67in /  1004.6hPa Calm     81% 0.00in /  0mm
07:49 31.3 °F /  -0.4 °C 26.4 °F /  -3.1 °C 29.67in /  1004.6hPa Calm     82% 0.00in /  0mm
07:54 31.5 °F /  -0.3 °C 26.9 °F /  -2.8 °C 29.66in /  1004.3hPa Calm     83% 0.00in /  0mm
07:59 31.7 °F /  -0.2 °C 27.1 °F /  -2.7 °C 29.66in /  1004.3hPa Calm     83% 0.00in /  0mm
08:04 32.0 °F /  0 °C 27.7 °F /  -2.4 °C 29.65in /  1003.9hPa Calm     84% 0.00in /  0mm
08:09 32.8 °F /  0.4 °C 28.8 °F /  -1.8 °C 29.65in /  1003.9hPa Calm   1.0mph /  1.6km/h 85% 0.00in /  0mm
08:14 33.6 °F /  0.9 °C 29.6 °F /  -1.3 °C 29.65in /  1003.9hPa Calm   1.0mph /  1.6km/h 85% 0.00in /  0mm
08:19 33.8 °F /  1 °C 29.5 °F /  -1.4 °C 29.65in /  1003.9hPa Calm   1.0mph /  1.6km/h 84% 0.00in /  0mm
08:24 33.9 °F /  1.1 °C 29.3 °F /  -1.5 °C 29.65in /  1003.9hPa Calm     83% 0.00in /  0mm
08:29 33.9 °F /  1.1 °C 29.3 °F /  -1.5 °C 29.65in /  1003.9hPa Calm     83% 0.00in /  0mm
08:34 33.8 °F /  1 °C 28.9 °F /  -1.7 °C 29.66in /  1004.3hPa Calm     82% 0.00in /  0mm
08:39 33.7 °F /  0.9 °C 28.8 °F /  -1.8 °C 29.66in /  1004.3hPa Calm     82% 0.00in /  0mm
08:49 34.4 °F /  1.3 °C 29.8 °F /  -1.2 °C 29.66in /  1004.3hPa Calm   3.0mph /  4.8km/h 83% 0.00in /  0mm
08:54 34.9 °F /  1.6 °C 30.0 °F /  -1.1 °C 29.66in /  1004.3hPa SSW 2.0mph /  3.2km/h 3.0mph /  4.8km/h 82% 0.00in /  0mm
08:59 35.6 °F /  2 °C 30.0 °F /  -1.1 °C 29.66in /  1004.3hPa SSW 2.0mph /  3.2km/h 3.0mph /  4.8km/h 80% 0.00in /  0mm
09:04 36.4 °F /  2.4 °C 30.2 °F /  -1 °C 29.66in /  1004.3hPa SSW 1.0mph /  1.6km/h 3.0mph /  4.8km/h 78% 0.00in /  0mm
09:09 37.3 °F /  2.9 °C 30.4 °F /  -0.9 °C 29.67in /  1004.6hPa SSW 2.0mph /  3.2km/h 3.0mph /  4.8km/h 76% 0.00in /  0mm
09:14 37.9 °F /  3.3 °C 30.4 °F /  -0.9 °C 29.67in /  1004.6hPa SSW 2.0mph /  3.2km/h 4.0mph /  6.4km/h 74% 0.00in /  0mm
09:19 38.4 °F /  3.6 °C 30.5 °F /  -0.8 °C 29.66in /  1004.3hPa SSW 2.0mph /  3.2km/h 4.0mph /  6.4km/h 73% 0.00in /  0mm
09:24 38.7 °F /  3.7 °C 30.5 °F /  -0.8 °C 29.66in /  1004.3hPa SSW 3.0mph /  4.8km/h 5.0mph /  8km/h 72% 0.00in /  0mm
09:29 39.1 °F /  3.9 °C 30.1 °F /  -1.1 °C 29.66in /  1004.3hPa SSW 2.0mph /  3.2km/h 7.0mph /  11.3km/h 70% 0.00in /  0mm
09:34 39.4 °F /  4.1 °C 30.4 °F /  -0.9 °C 29.66in /  1004.3hPa SSW 3.0mph /  4.8km/h 7.0mph /  11.3km/h 70% 0.00in /  0mm
09:39 39.5 °F /  4.2 °C 30.2 °F /  -1 °C 29.66in /  1004.3hPa SW 2.0mph /  3.2km/h 6.0mph /  9.7km/h 69% 0.00in /  0mm
09:44 39.6 °F /  4.2 °C 30.3 °F /  -0.9 °C 29.65in /  1003.9hPa SSW 3.0mph /  4.8km/h 6.0mph /  9.7km/h 69% 0.00in /  0mm
09:49 39.7 °F /  4.3 °C 30.0 °F /  -1.1 °C 29.65in /  1003.9hPa SSW 4.0mph /  6.4km/h 7.0mph /  11.3km/h 68% 0.00in /  0mm
09:54 39.8 °F /  4.3 °C 30.1 °F /  -1.1 °C 29.65in /  1003.9hPa SSW 4.0mph /  6.4km/h 7.0mph /  11.3km/h 68% 0.00in /  0mm
09:59 39.8 °F /  4.3 °C 30.1 °F /  -1.1 °C 29.65in /  1003.9hPa SSW 4.0mph /  6.4km/h 8.0mph /  12.9km/h 68% 0.00in /  0mm
10:04 39.7 °F /  4.3 °C 30.0 °F /  -1.1 °C 29.65in /  1003.9hPa SSW 4.0mph /  6.4km/h 8.0mph /  12.9km/h 68% 0.00in /  0mm
10:09 39.5 °F /  4.2 °C 31.2 °F /  -0.4 °C 29.65in /  1003.9hPa SSW 5.0mph /  8km/h 8.0mph /  12.9km/h 72% 0.00in /  0mm
10:14 39.4 °F /  4.1 °C 29.7 °F /  -1.3 °C 29.65in /  1003.9hPa SSW 5.0mph /  8km/h 8.0mph /  12.9km/h 68% 0.00in /  0mm
10:19 39.3 °F /  4.1 °C 29.6 °F /  -1.3 °C 29.65in /  1003.9hPa SSW 3.0mph /  4.8km/h 8.0mph /  12.9km/h 68% 0.00in /  0mm
10:24 39.3 °F /  4.1 °C 29.6 °F /  -1.3 °C 29.65in /  1003.9hPa SSW 4.0mph /  6.4km/h 10.0mph /  16.1km/h 68% 0.00in /  0mm
10:29 39.2 °F /  4 °C 29.9 °F /  -1.2 °C 29.64in /  1003.6hPa SSW 3.0mph /  4.8km/h 10.0mph /  16.1km/h 69% 0.00in /  0mm
10:34 39.3 °F /  4.1 °C 30.0 °F /  -1.1 °C 29.64in /  1003.6hPa SSW 3.0mph /  4.8km/h 8.0mph /  12.9km/h 69% 0.00in /  0mm
10:39 39.4 °F /  4.1 °C 30.1 °F /  -1.1 °C 29.64in /  1003.6hPa SSW 3.0mph /  4.8km/h 8.0mph /  12.9km/h 69% 0.00in /  0mm
10:44 39.6 °F /  4.2 °C 30.3 °F /  -0.9 °C 29.64in /  1003.6hPa SSW 4.0mph /  6.4km/h 8.0mph /  12.9km/h 69% 0.00in /  0mm
10:49 39.8 °F /  4.3 °C 30.1 °F /  -1.1 °C 29.64in /  1003.6hPa SSW 3.0mph /  4.8km/h 9.0mph /  14.5km/h 68% 0.00in /  0mm
10:54 40.0 °F /  4.4 °C 30.3 °F /  -0.9 °C 29.63in /  1003.3hPa SSW 5.0mph /  8km/h 9.0mph /  14.5km/h 68% 0.00in /  0mm
10:59 40.2 °F /  4.6 °C 30.5 °F /  -0.8 °C 29.63in /  1003.3hPa SSW 4.0mph /  6.4km/h 8.0mph /  12.9km/h 68% 0.00in /  0mm
11:04 40.1 °F /  4.5 °C 30.4 °F /  -0.9 °C 29.63in /  1003.3hPa SSW 4.0mph /  6.4km/h 9.0mph /  14.5km/h 68% 0.00in /  0mm
11:09 39.9 °F /  4.4 °C 30.2 °F /  -1 °C 29.63in /  1003.3hPa SSW 4.0mph /  6.4km/h 9.0mph /  14.5km/h 68% 0.00in /  0mm
11:14 39.9 °F /  4.4 °C 30.2 °F /  -1 °C 29.62in /  1002.9hPa SSW 3.0mph /  4.8km/h 8.0mph /  12.9km/h 68% 0.00in /  0mm
11:19 40.0 °F /  4.4 °C 30.3 °F /  -0.9 °C 29.62in /  1002.9hPa SSW 2.0mph /  3.2km/h 6.0mph /  9.7km/h 68% 0.00in /  0mm
11:24 40.1 °F /  4.5 °C 30.4 °F /  -0.9 °C 29.61in /  1002.6hPa SSW 3.0mph /  4.8km/h 7.0mph /  11.3km/h 68% 0.00in /  0mm
11:29 40.2 °F /  4.6 °C 30.5 °F /  -0.8 °C 29.61in /  1002.6hPa SSW 3.0mph /  4.8km/h 7.0mph /  11.3km/h 68% 0.00in /  0mm
11:34 40.2 °F /  4.6 °C 30.5 °F /  -0.8 °C 29.61in /  1002.6hPa SSW 4.0mph /  6.4km/h 9.0mph /  14.5km/h 68% 0.00in /  0mm
11:39 40.2 °F /  4.6 °C 30.5 °F /  -0.8 °C 29.61in /  1002.6hPa SSW 4.0mph /  6.4km/h 9.0mph /  14.5km/h 68% 0.00in /  0mm
11:44 39.9 °F /  4.4 °C 30.9 °F /  -0.6 °C 29.61in /  1002.6hPa SSW 3.0mph /  4.8km/h 7.0mph /  11.3km/h 70% 0.00in /  0mm
11:49 39.5 °F /  4.2 °C 31.2 °F /  -0.4 °C 29.61in /  1002.6hPa SW 3.0mph /  4.8km/h 7.0mph /  11.3km/h 72% 0.00in /  0mm
11:54 39.1 °F /  3.9 °C 31.5 °F /  -0.3 °C 29.62in /  1002.9hPa SSW 3.0mph /  4.8km/h 7.0mph /  11.3km/h 74% 0.00in /  0mm
11:59 38.7 °F /  3.7 °C 31.8 °F /  -0.1 °C 29.62in /  1002.9hPa SSW 2.0mph /  3.2km/h 6.0mph /  9.7km/h 76% 0.00in /  0mm
12:04 38.6 °F /  3.7 °C 32.0 °F /  0 °C 29.61in /  1002.6hPa Calm   6.0mph /  9.7km/h 77% 0.00in /  0mm
12:09 38.5 °F /  3.6 °C 32.2 °F /  0.1 °C 29.61in /  1002.6hPa SSW 1.0mph /  1.6km/h 3.0mph /  4.8km/h 78% 0.00in /  0mm
12:14 38.4 °F /  3.6 °C 32.5 °F /  0.3 °C 29.61in /  1002.6hPa Calm   3.0mph /  4.8km/h 79% 0.00in /  0mm
12:19 38.4 °F /  3.6 °C 32.5 °F /  0.3 °C 29.61in /  1002.6hPa SSW 1.0mph /  1.6km/h 3.0mph /  4.8km/h 79% 0.00in /  0mm
12:24 38.3 °F /  3.5 °C 33.0 °F /  0.6 °C 29.61in /  1002.6hPa Calm   3.0mph /  4.8km/h 81% 0.00in /  0mm
12:34 37.9 °F /  3.3 °C 32.9 °F /  0.5 °C 29.61in /  1002.6hPa Calm   3.0mph /  4.8km/h 82% 0.00in /  0mm
12:39 37.8 °F /  3.2 °C 32.8 °F /  0.4 °C 29.61in /  1002.6hPa SSW 1.0mph /  1.6km/h 3.0mph /  4.8km/h 82% 0.00in /  0mm
12:44 37.7 °F /  3.2 °C 33.0 °F /  0.6 °C 29.61in /  1002.6hPa SSW 1.0mph /  1.6km/h 3.0mph /  4.8km/h 83% 0.00in /  0mm
12:49 37.7 °F /  3.2 °C 33.0 °F /  0.6 °C 29.61in /  1002.6hPa SSW 2.0mph /  3.2km/h 5.0mph /  8km/h 83% 0.00in /  0mm
12:54 37.5 °F /  3.1 °C 33.1 °F /  0.6 °C 29.61in /  1002.6hPa SSW 3.0mph /  4.8km/h 6.0mph /  9.7km/h 84% 0.00in /  0mm
12:59 37.4 °F /  3 °C 32.7 °F /  0.4 °C 29.61in /  1002.6hPa SSW 4.0mph /  6.4km/h 8.0mph /  12.9km/h 83% 0.00in /  0mm
13:04 37.3 °F /  2.9 °C 32.6 °F /  0.3 °C 29.61in /  1002.6hPa SSW 3.0mph /  4.8km/h 8.0mph /  12.9km/h 83% 0.00in /  0mm
13:09 37.1 °F /  2.8 °C 32.7 °F /  0.4 °C 29.61in /  1002.6hPa SSW 4.0mph /  6.4km/h 8.0mph /  12.9km/h 84% 0.00in /  0mm
13:14 37.0 °F /  2.8 °C 32.6 °F /  0.3 °C 29.61in /  1002.6hPa SW 3.0mph /  4.8km/h 7.0mph /  11.3km/h 84% 0.00in /  0mm
13:19 36.9 °F /  2.7 °C 32.5 °F /  0.3 °C 29.61in /  1002.6hPa SSW 3.0mph /  4.8km/h 6.0mph /  9.7km/h 84% 0.00in /  0mm
13:24 36.8 °F /  2.7 °C 32.4 °F /  0.2 °C 29.61in /  1002.6hPa SW 4.0mph /  6.4km/h 7.0mph /  11.3km/h 84% 0.00in /  0mm
13:29 36.8 °F /  2.7 °C 32.4 °F /  0.2 °C 29.61in /  1002.6hPa SSW 3.0mph /  4.8km/h 7.0mph /  11.3km/h 84% 0.00in /  0mm
13:34 36.8 °F /  2.7 °C 32.4 °F /  0.2 °C 29.61in /  1002.6hPa SSW 4.0mph /  6.4km/h 6.0mph /  9.7km/h 84% 0.00in /  0mm
13:39 36.8 °F /  2.7 °C 32.1 °F /  0.1 °C 29.62in /  1002.9hPa SW 4.0mph /  6.4km/h 8.0mph /  12.9km/h 83% 0.00in /  0mm
13:44 36.9 °F /  2.7 °C 32.2 °F /  0.1 °C 29.62in /  1002.9hPa SW 4.0mph /  6.4km/h 8.0mph /  12.9km/h 83% 0.00in /  0mm
13:49 36.9 °F /  2.7 °C 31.9 °F /  -0.1 °C 29.62in /  1002.9hPa SSW 5.0mph /  8km/h 7.0mph /  11.3km/h 82% 0.00in /  0mm
13:54 36.9 °F /  2.7 °C 31.9 °F /  -0.1 °C 29.62in /  1002.9hPa SW 3.0mph /  4.8km/h 8.0mph /  12.9km/h 82% 0.00in /  0mm
13:59 36.9 °F /  2.7 °C 31.9 °F /  -0.1 °C 29.62in /  1002.9hPa SW 4.0mph /  6.4km/h 8.0mph /  12.9km/h 82% 0.00in /  0mm
14:04 37.0 °F /  2.8 °C 31.7 °F /  -0.2 °C 29.62in /  1002.9hPa SSW 5.0mph /  8km/h 9.0mph /  14.5km/h 81% 0.00in /  0mm
14:09 37.0 °F /  2.8 °C 31.7 °F /  -0.2 °C 29.62in /  1002.9hPa SSW 5.0mph /  8km/h 9.0mph /  14.5km/h 81% 0.00in /  0mm
14:14 36.9 °F /  2.7 °C 31.6 °F /  -0.2 °C 29.62in /  1002.9hPa SW 5.0mph /  8km/h 9.0mph /  14.5km/h 81% 0.00in /  0mm
14:19 36.9 °F /  2.7 °C 31.6 °F /  -0.2 °C 29.62in /  1002.9hPa SW 5.0mph /  8km/h 9.0mph /  14.5km/h 81% 0.00in /  0mm
14:24 36.9 °F /  2.7 °C 31.6 °F /  -0.2 °C 29.63in /  1003.3hPa SW 5.0mph /  8km/h 8.0mph /  12.9km/h 81% 0.00in /  0mm
14:29 36.9 °F /  2.7 °C 31.6 °F /  -0.2 °C 29.63in /  1003.3hPa SSW 4.0mph /  6.4km/h 7.0mph /  11.3km/h 81% 0.00in /  0mm
14:34 36.9 °F /  2.7 °C 31.6 °F /  -0.2 °C 29.63in /  1003.3hPa SSW 4.0mph /  6.4km/h 8.0mph /  12.9km/h 81% 0.00in /  0mm
14:39 37.0 °F /  2.8 °C 31.7 °F /  -0.2 °C 29.63in /  1003.3hPa SSW 5.0mph /  8km/h 8.0mph /  12.9km/h 81% 0.00in /  0mm
14:44 37.1 °F /  2.8 °C 31.8 °F /  -0.1 °C 29.63in /  1003.3hPa SSW 5.0mph /  8km/h 8.0mph /  12.9km/h 81% 0.00in /  0mm
14:49 37.3 °F /  2.9 °C 31.7 °F /  -0.2 °C 29.63in /  1003.3hPa SSW 6.0mph /  9.7km/h 8.0mph /  12.9km/h 80% 0.00in /  0mm
14:54 37.4 °F /  3 °C 31.8 °F /  -0.1 °C 29.63in /  1003.3hPa SSW 5.0mph /  8km/h 8.0mph /  12.9km/h 80% 0.00in /  0mm
14:59 37.5 °F /  3.1 °C 31.6 °F /  -0.2 °C 29.64in /  1003.6hPa SSW 6.0mph /  9.7km/h 8.0mph /  12.9km/h 79% 0.00in /  0mm
15:04 37.5 °F /  3.1 °C 31.6 °F /  -0.2 °C 29.64in /  1003.6hPa SSW 5.0mph /  8km/h 8.0mph /  12.9km/h 79% 0.00in /  0mm
15:09 37.5 °F /  3.1 °C 31.9 °F /  -0.1 °C 29.64in /  1003.6hPa SSW 3.0mph /  4.8km/h 7.0mph /  11.3km/h 80% 0.00in /  0mm
15:14 37.5 °F /  3.1 °C 31.9 °F /  -0.1 °C 29.64in /  1003.6hPa SSW 3.0mph /  4.8km/h 7.0mph /  11.3km/h 80% 0.00in /  0mm
15:19 37.9 °F /  3.3 °C 32.0 °F /  0 °C 29.64in /  1003.6hPa SSW 3.0mph /  4.8km/h 7.0mph /  11.3km/h 79% 0.00in /  0mm
15:24 38.1 °F /  3.4 °C 31.9 °F /  -0.1 °C 29.64in /  1003.6hPa SW 3.0mph /  4.8km/h 6.0mph /  9.7km/h 78% 0.00in /  0mm
15:29 38.3 °F /  3.5 °C 32.0 °F /  0 °C 29.64in /  1003.6hPa SW 4.0mph /  6.4km/h 7.0mph /  11.3km/h 78% 0.00in /  0mm
15:34 38.6 °F /  3.7 °C 32.0 °F /  0 °C 29.64in /  1003.6hPa SSW 4.0mph /  6.4km/h 7.0mph /  11.3km/h 77% 0.00in /  0mm
15:39 38.6 °F /  3.7 °C 32.0 °F /  0 °C 29.65in /  1003.9hPa SW 3.0mph /  4.8km/h 7.0mph /  11.3km/h 77% 0.00in /  0mm
15:44 38.7 °F /  3.7 °C 32.1 °F /  0.1 °C 29.65in /  1003.9hPa Calm   5.0mph /  8km/h 77% 0.00in /  0mm
15:49 38.6 °F /  3.7 °C 32.0 °F /  0 °C 29.64in /  1003.6hPa Calm   3.0mph /  4.8km/h 77% 0.00in /  0mm
15:54 38.6 °F /  3.7 °C 32.0 °F /  0 °C 29.64in /  1003.6hPa Calm   2.0mph /  3.2km/h 77% 0.00in /  0mm
15:59 38.4 °F /  3.6 °C 31.8 °F /  -0.1 °C 29.64in /  1003.6hPa Calm   2.0mph /  3.2km/h 77% 0.00in /  0mm
16:04 37.8 °F /  3.2 °C 31.2 °F /  -0.4 °C 29.65in /  1003.9hPa Calm   1.0mph /  1.6km/h 77% 0.00in /  0mm
16:09 36.9 °F /  2.7 °C 30.7 °F /  -0.7 °C 29.65in /  1003.9hPa Calm   1.0mph /  1.6km/h 78% 0.00in /  0mm
16:14 36.0 °F /  2.2 °C 30.4 °F /  -0.9 °C 29.65in /  1003.9hPa Calm     80% 0.00in /  0mm
16:19 35.6 °F /  2 °C 30.4 °F /  -0.9 °C 29.65in /  1003.9hPa Calm     81% 0.00in /  0mm
16:24 35.3 °F /  1.8 °C 30.4 °F /  -0.9 °C 29.66in /  1004.3hPa Calm     82% 0.00in /  0mm
16:29 35.1 °F /  1.7 °C 30.2 °F /  -1 °C 29.66in /  1004.3hPa Calm     82% 0.00in /  0mm
16:34 34.9 °F /  1.6 °C 30.3 °F /  -0.9 °C 29.67in /  1004.6hPa Calm     83% 0.00in /  0mm
16:39 34.7 °F /  1.5 °C 30.1 °F /  -1.1 °C 29.67in /  1004.6hPa Calm     83% 0.00in /  0mm
16:44 34.8 °F /  1.6 °C 30.5 °F /  -0.8 °C 29.67in /  1004.6hPa Calm     84% 0.00in /  0mm
16:49 34.8 °F /  1.6 °C 30.5 °F /  -0.8 °C 29.68in /  1005hPa Calm     84% 0.00in /  0mm
16:54 34.7 °F /  1.5 °C 30.7 °F /  -0.7 °C 29.68in /  1005hPa Calm   1.0mph /  1.6km/h 85% 0.00in /  0mm
16:59 34.7 °F /  1.5 °C 30.7 °F /  -0.7 °C 29.68in /  1005hPa SSW 1.0mph /  1.6km/h 2.0mph /  3.2km/h 85% 0.00in /  0mm
17:04 34.8 °F /  1.6 °C 30.8 °F /  -0.7 °C 29.68in /  1005hPa Calm   2.0mph /  3.2km/h 85% 0.00in /  0mm
17:09 34.8 °F /  1.6 °C 31.0 °F /  -0.6 °C 29.69in /  1005.3hPa SSW 1.0mph /  1.6km/h 2.0mph /  3.2km/h 86% 0.00in /  0mm
17:14 34.5 °F /  1.4 °C 30.7 °F /  -0.7 °C 29.69in /  1005.3hPa NW 3.0mph /  4.8km/h 9.0mph /  14.5km/h 86% 0.00in /  0mm
17:19 33.7 °F /  0.9 °C 29.7 °F /  -1.3 °C 29.70in /  1005.6hPa NW 2.0mph /  3.2km/h 9.0mph /  14.5km/h 85% 0.00in /  0mm
17:24 33.2 °F /  0.7 °C 29.2 °F /  -1.6 °C 29.70in /  1005.6hPa NNW 1.0mph /  1.6km/h 8.0mph /  12.9km/h 85% 0.00in /  0mm
17:29 32.9 °F /  0.5 °C 29.2 °F /  -1.6 °C 29.71in /  1006hPa Calm   4.0mph /  6.4km/h 86% 0.00in /  0mm
17:34 32.9 °F /  0.5 °C 29.5 °F /  -1.4 °C 29.71in /  1006hPa Calm   3.0mph /  4.8km/h 87% 0.00in /  0mm
17:39 33.3 °F /  0.7 °C 30.1 °F /  -1.1 °C 29.73in /  1006.7hPa NW 7.0mph /  11.3km/h 10.0mph /  16.1km/h 88% 0.00in /  0mm
17:44 33.4 °F /  0.8 °C 30.2 °F /  -1 °C 29.73in /  1006.7hPa NW 5.0mph /  8km/h 10.0mph /  16.1km/h 88% 0.00in /  0mm
17:49 33.2 °F /  0.7 °C 30.0 °F /  -1.1 °C 29.73in /  1006.7hPa NNW 2.0mph /  3.2km/h 9.0mph /  14.5km/h 88% 0.00in /  0mm
17:54 33.0 °F /  0.6 °C 29.8 °F /  -1.2 °C 29.73in /  1006.7hPa NNW 2.0mph /  3.2km/h 5.0mph /  8km/h 88% 0.00in /  0mm
17:59 32.9 °F /  0.5 °C 29.7 °F /  -1.3 °C 29.73in /  1006.7hPa Calm   5.0mph /  8km/h 88% 0.00in /  0mm
18:04 32.9 °F /  0.5 °C 30.0 °F /  -1.1 °C 29.72in /  1006.3hPa NNW 1.0mph /  1.6km/h 4.0mph /  6.4km/h 89% 0.00in /  0mm
18:09 32.9 °F /  0.5 °C 30.0 °F /  -1.1 °C 29.73in /  1006.7hPa Calm   4.0mph /  6.4km/h 89% 0.00in /  0mm
18:14 32.9 °F /  0.5 °C 30.0 °F /  -1.1 °C 29.73in /  1006.7hPa NNE 1.0mph /  1.6km/h 4.0mph /  6.4km/h 89% 0.00in /  0mm
18:19 33.0 °F /  0.6 °C 30.1 °F /  -1.1 °C 29.74in /  1007hPa NNE 1.0mph /  1.6km/h 3.0mph /  4.8km/h 89% 0.00in /  0mm
18:24 32.9 °F /  0.5 °C 30.3 °F /  -0.9 °C 29.75in /  1007.3hPa NNE 1.0mph /  1.6km/h 3.0mph /  4.8km/h 90% 0.00in /  0mm
18:30 33.0 °F /  0.6 °C 30.4 °F /  -0.9 °C 29.74in /  1007hPa Calm   3.0mph /  4.8km/h 90% 0.00in /  0mm
18:39 33.0 °F /  0.6 °C 30.4 °F /  -0.9 °C 29.75in /  1007.3hPa Calm   1.0mph /  1.6km/h 90% 0.00in /  0mm
18:44 32.9 °F /  0.5 °C 30.3 °F /  -0.9 °C 29.75in /  1007.3hPa Calm   2.0mph /  3.2km/h 90% 0.00in /  0mm
18:49 32.9 °F /  0.5 °C 30.3 °F /  -0.9 °C 29.75in /  1007.3hPa Calm   2.0mph /  3.2km/h 90% 0.00in /  0mm
18:54 32.9 °F /  0.5 °C 30.3 °F /  -0.9 °C 29.76in /  1007.7hPa Calm     90% 0.00in /  0mm
18:59 33.0 °F /  0.6 °C 30.4 °F /  -0.9 °C 29.76in /  1007.7hPa Calm     90% 0.00in /  0mm
19:04 32.9 °F /  0.5 °C 30.3 °F /  -0.9 °C 29.76in /  1007.7hPa Calm     90% 0.00in /  0mm
19:09 32.9 °F /  0.5 °C 30.6 °F /  -0.8 °C 29.76in /  1007.7hPa Calm     91% 0.00in /  0mm
19:14 32.9 °F /  0.5 °C 30.6 °F /  -0.8 °C 29.77in /  1008hPa Calm     91% 0.00in /  0mm
19:19 32.8 °F /  0.4 °C 30.5 °F /  -0.8 °C 29.76in /  1007.7hPa Calm     91% 0.00in /  0mm
19:24 32.9 °F /  0.5 °C 30.6 °F /  -0.8 °C 29.77in /  1008hPa Calm     91% 0.00in /  0mm
19:29 32.9 °F /  0.5 °C 30.6 °F /  -0.8 °C 29.77in /  1008hPa Calm   1.0mph /  1.6km/h 91% 0.00in /  0mm
19:34 33.0 °F /  0.6 °C 30.7 °F /  -0.7 °C 29.76in /  1007.7hPa Calm   1.0mph /  1.6km/h 91% 0.00in /  0mm
19:39 33.0 °F /  0.6 °C 30.7 °F /  -0.7 °C 29.77in /  1008hPa Calm     91% 0.00in /  0mm
19:49 33.0 °F /  0.6 °C 30.7 °F /  -0.7 °C 29.78in /  1008.4hPa North 2.0mph /  3.2km/h 4.0mph /  6.4km/h 91% 0.00in /  0mm
19:54 33.3 °F /  0.7 °C 31.2 °F /  -0.4 °C 29.79in /  1008.7hPa WNW 3.0mph /  4.8km/h 9.0mph /  14.5km/h 92% 0.00in /  0mm
19:59 33.4 °F /  0.8 °C 31.3 °F /  -0.4 °C 29.78in /  1008.4hPa NW 3.0mph /  4.8km/h 9.0mph /  14.5km/h 92% 0.00in /  0mm
20:04 33.4 °F /  0.8 °C 31.3 °F /  -0.4 °C 29.78in /  1008.4hPa WNW 2.0mph /  3.2km/h 6.0mph /  9.7km/h 92% 0.00in /  0mm
20:09 33.4 °F /  0.8 °C 31.3 °F /  -0.4 °C 29.79in /  1008.7hPa WNW 2.0mph /  3.2km/h 5.0mph /  8km/h 92% 0.00in /  0mm
20:14 33.4 °F /  0.8 °C 31.3 °F /  -0.4 °C 29.78in /  1008.4hPa Calm   4.0mph /  6.4km/h 92% 0.00in /  0mm
20:19 33.4 °F /  0.8 °C 31.3 °F /  -0.4 °C 29.77in /  1008hPa Calm   2.0mph /  3.2km/h 92% 0.00in /  0mm
20:24 33.2 °F /  0.7 °C 31.1 °F /  -0.5 °C 29.78in /  1008.4hPa WNW 2.0mph /  3.2km/h 3.0mph /  4.8km/h 92% 0.00in /  0mm
20:30 33.2 °F /  0.7 °C 31.1 °F /  -0.5 °C 29.78in /  1008.4hPa WNW 1.0mph /  1.6km/h 3.0mph /  4.8km/h 92% 0.00in /  0mm
20:39 33.2 °F /  0.7 °C 31.1 °F /  -0.5 °C 29.78in /  1008.4hPa WNW 1.0mph /  1.6km/h 3.0mph /  4.8km/h 92% 0.00in /  0mm
20:44 33.3 °F /  0.7 °C 31.2 °F /  -0.4 °C 29.79in /  1008.7hPa WNW 2.0mph /  3.2km/h 3.0mph /  4.8km/h 92% 0.00in /  0mm
20:49 33.5 °F /  0.8 °C 31.4 °F /  -0.3 °C 29.79in /  1008.7hPa WNW 2.0mph /  3.2km/h 4.0mph /  6.4km/h 92% 0.00in /  0mm
20:54 33.9 °F /  1.1 °C 32.1 °F /  0.1 °C 29.80in /  1009hPa WSW 4.0mph /  6.4km/h 7.0mph /  11.3km/h 93% 0.00in /  0mm
20:59 34.2 °F /  1.2 °C 32.4 °F /  0.2 °C 29.80in /  1009hPa West 5.0mph /  8km/h 8.0mph /  12.9km/h 93% 0.00in /  0mm
21:04 34.4 °F /  1.3 °C 32.6 °F /  0.3 °C 29.80in /  1009hPa WSW 4.0mph /  6.4km/h 8.0mph /  12.9km/h 93% 0.00in /  0mm
21:09 34.4 °F /  1.3 °C 32.6 °F /  0.3 °C 29.79in /  1008.7hPa WSW 2.0mph /  3.2km/h 8.0mph /  12.9km/h 93% 0.00in /  0mm
21:14 34.4 °F /  1.3 °C 32.6 °F /  0.3 °C 29.80in /  1009hPa SW 5.0mph /  8km/h 8.0mph /  12.9km/h 93% 0.00in /  0mm
21:19 34.2 °F /  1.2 °C 32.1 °F /  0.1 °C 29.80in /  1009hPa WSW 4.0mph /  6.4km/h 8.0mph /  12.9km/h 92% 0.00in /  0mm
21:24 34.1 °F /  1.2 °C 32.0 °F /  0 °C 29.80in /  1009hPa WSW 3.0mph /  4.8km/h 8.0mph /  12.9km/h 92% 0.00in /  0mm
21:29 34.2 °F /  1.2 °C 32.1 °F /  0.1 °C 29.80in /  1009hPa WSW 4.0mph /  6.4km/h 7.0mph /  11.3km/h 92% 0.00in /  0mm
21:34 34.2 °F /  1.2 °C 32.1 °F /  0.1 °C 29.81in /  1009.4hPa SW 3.0mph /  4.8km/h 7.0mph /  11.3km/h 92% 0.00in /  0mm
21:39 34.2 °F /  1.2 °C 32.1 °F /  0.1 °C 29.81in /  1009.4hPa SW 3.0mph /  4.8km/h 7.0mph /  11.3km/h 92% 0.00in /  0mm
21:44 34.1 °F /  1.2 °C 32.0 °F /  0 °C 29.81in /  1009.4hPa SW 5.0mph /  8km/h 10.0mph /  16.1km/h 92% 0.00in /  0mm
21:49 33.5 °F /  0.8 °C 31.4 °F /  -0.3 °C 29.81in /  1009.4hPa SSW 6.0mph /  9.7km/h 10.0mph /  16.1km/h 92% 0.00in /  0mm
21:54 33.3 °F /  0.7 °C 31.2 °F /  -0.4 °C 29.81in /  1009.4hPa SSW 5.0mph /  8km/h 8.0mph /  12.9km/h 92% 0.00in /  0mm
21:59 33.2 °F /  0.7 °C 31.1 °F /  -0.5 °C 29.82in /  1009.7hPa SW 3.0mph /  4.8km/h 8.0mph /  12.9km/h 92% 0.00in /  0mm
22:04 33.4 °F /  0.8 °C 31.3 °F /  -0.4 °C 29.82in /  1009.7hPa SW 1.0mph /  1.6km/h 11.0mph /  17.7km/h 92% 0.00in /  0mm
22:09 33.6 °F /  0.9 °C 31.5 °F /  -0.3 °C 29.82in /  1009.7hPa West 4.0mph /  6.4km/h 11.0mph /  17.7km/h 92% 0.00in /  0mm
22:14 33.8 °F /  1 °C 31.7 °F /  -0.2 °C 29.82in /  1009.7hPa Calm   10.0mph /  16.1km/h 92% 0.00in /  0mm
22:19 34.1 °F /  1.2 °C 32.0 °F /  0 °C 29.82in /  1009.7hPa SW 4.0mph /  6.4km/h 7.0mph /  11.3km/h 92% 0.00in /  0mm
22:24 34.4 °F /  1.3 °C 32.3 °F /  0.2 °C 29.83in /  1010hPa WSW 4.0mph /  6.4km/h 9.0mph /  14.5km/h 92% 0.00in /  0mm
22:29 34.4 °F /  1.3 °C 32.0 °F /  0 °C 29.82in /  1009.7hPa WSW 3.0mph /  4.8km/h 9.0mph /  14.5km/h 91% 0.00in /  0mm
22:34 34.4 °F /  1.3 °C 31.8 °F /  -0.1 °C 29.82in /  1009.7hPa West 6.0mph /  9.7km/h 12.0mph /  19.3km/h 90% 0.00in /  0mm
22:39 35.0 °F /  1.7 °C 31.8 °F /  -0.1 °C 29.83in /  1010hPa West 4.0mph /  6.4km/h 12.0mph /  19.3km/h 88% 0.00in /  0mm
22:44 35.2 °F /  1.8 °C 31.7 °F /  -0.2 °C 29.83in /  1010hPa WSW 4.0mph /  6.4km/h 12.0mph /  19.3km/h 87% 0.00in /  0mm
22:49 35.3 °F /  1.8 °C 31.2 °F /  -0.4 °C 29.83in /  1010hPa West 7.0mph /  11.3km/h 17.0mph /  27.4km/h 85% 0.00in /  0mm
22:54 35.5 °F /  1.9 °C 30.9 °F /  -0.6 °C 29.83in /  1010hPa WSW 8.0mph /  12.9km/h 17.0mph /  27.4km/h 83% 0.00in /  0mm
22:59 35.6 °F /  2 °C 30.7 °F /  -0.7 °C 29.83in /  1010hPa West 6.0mph /  9.7km/h 15.0mph /  24.1km/h 82% 0.00in /  0mm
23:04 35.5 °F /  1.9 °C 30.6 °F /  -0.8 °C 29.84in /  1010.4hPa West 6.0mph /  9.7km/h 16.0mph /  25.7km/h 82% 0.00in /  0mm
23:09 35.5 °F /  1.9 °C 30.3 °F /  -0.9 °C 29.84in /  1010.4hPa WSW 7.0mph /  11.3km/h 16.0mph /  25.7km/h 81% 0.00in /  0mm
23:14 35.4 °F /  1.9 °C 29.8 °F /  -1.2 °C 29.84in /  1010.4hPa West 6.0mph /  9.7km/h 14.0mph /  22.5km/h 80% 0.00in /  0mm
23:19 35.2 °F /  1.8 °C 29.3 °F /  -1.5 °C 29.84in /  1010.4hPa WSW 7.0mph /  11.3km/h 17.0mph /  27.4km/h 79% 0.00in /  0mm
23:24 34.9 °F /  1.6 °C 29.4 °F /  -1.4 °C 29.84in /  1010.4hPa West 6.0mph /  9.7km/h 17.0mph /  27.4km/h 80% 0.00in /  0mm
23:29 34.5 °F /  1.4 °C 29.0 °F /  -1.7 °C 29.84in /  1010.4hPa West 4.0mph /  6.4km/h 10.0mph /  16.1km/h 80% 0.00in /  0mm
23:34 34.4 °F /  1.3 °C 28.9 °F /  -1.7 °C 29.84in /  1010.4hPa WSW 6.0mph /  9.7km/h 13.0mph /  20.9km/h 80% 0.00in /  0mm
23:39 34.4 °F /  1.3 °C 28.9 °F /  -1.7 °C 29.85in /  1010.7hPa WNW 4.0mph /  6.4km/h 13.0mph /  20.9km/h 80% 0.00in /  0mm
23:44 34.2 °F /  1.2 °C 28.4 °F /  -2 °C 29.85in /  1010.7hPa West 6.0mph /  9.7km/h 13.0mph /  20.9km/h 79% 0.00in /  0mm
23:49 34.2 °F /  1.2 °C 28.4 °F /  -2 °C 29.85in /  1010.7hPa WSW 6.0mph /  9.7km/h 13.0mph /  20.9km/h 79% 0.00in /  0mm
23:54 34.2 °F /  1.2 °C 28.4 °F /  -2 °C 29.85in /  1010.7hPa West 7.0mph /  11.3km/h 14.0mph /  22.5km/h 79% 0.00in /  0mm
23:59 34.2 °F /  1.2 °C 28.1 °F /  -2.2 °C 29.85in /  1010.7hPa West 7.0mph /  11.3km/h 14.0mph /  22.5km/h 78% 0.00in /  0mm
Westford Weather
Compliments of Weather Underground

 
 
Current Radar Loop:

Copyright © WestfordWeather.net 2007-2014. All rights reserved.